Record high temperature 32.9°C Record low temperature -8.5°C Record high gust 255.3 mph Record high average 172.4 mph Record daily rain 43.6 mm Record low windchill -14.8°C Record high barometer 1048.1 hPa Record low barometer 963.2 hPa
Daily high pressure 1005.7 hPa Daily low pressure 1005.1 hPa Daily low windchill 0.2°C Daily high heat index 3.8°C Daily high gust speed 7.0 mph WNW Daily high average speed 6.1 mph WNW
Seaford Weather Data
LAST READING AT TIME: 04:30 DATE: 15 November 2019, time of next update: 05:00
Current WeatherNight time/Dry/partly cloudy - Current Temperature 3.4°C (38.1°F), Apparent temp 1.9°C
Maximum Temperature (since midnight)3.8°C at: 12:00 AM Minimum Temperature (since midnight)2.7°C at: 2:43 AM
Average windspeed (ten minute)2.0 mph Wind Direction (ten minute)NW (317°)
Windchill Temperature 3.4°C Maximum Gust (last hour)7.0 mph at: 03:33
Maximum Gust (since midnight)7.0 mph at: 02:18 Maximum 1 minute average (since midnight)6.1 mph at: 03:54
Rainfall (last hour)0.0 mm Rainfall (since midnight)0.2 mm (0.01 in.)---
Rainfall This month 156.2 mm (6.15 in.) Rainfall To date this year 925.4 mm (36.43 in.)
Maximum rain per minute (last hour)0.0 mm/min Maximum rain per hour (last 6 hours)0.2 mm/hour
Yesterdays rainfall 18.6 mm DewPoint 2.7°C (Wet Bulb :3.1°C )
Humidity 95 %, Humidex 2.0°C Barometer corrected to msl1005.5 hPa
Pressure change -0.1 hPa (last hour) Trend (last hour)STEADY
Pressure change (last 12 hours)+4.2 hPa Pressure change (last 6 hours)+0.6 hPa
Current 00:00 hours of sunshine today, current sky: Night time/Dry/partly cloudy -
Sunshine hours for the year: 1163:18 hrs Sunshine hours for the month: 43:30 hrs
Current evapotranspiration rate 0.2 mm per day. Yesterday's reading 0.3


Click here to listen to the current weather conditions


Weather report/warning/Metars

Shoreham Airport, United Kingdom (EGKA) 50-50N 000-17W 0M
Nov 14, 2019 - 02:50 PM EST / 2019.11.14 1950 UTC
Wind: from the N (350 degrees) at 8 MPH (7 KT):0
Visibility: greater than 7 mile(s):0
Sky conditions: partly cloudy
Weather: light rain showers
Temperature: 42 F (6 C)
Dew Point: 41 F (5 C)
Relative Humidity: 93%
Pressure (altimeter): 29.53 in. Hg (1000 hPa)
ob: EGKA 141950Z 35007KT 9999 -SHRA FEW009 SCT028 06/05 Q1000 RESHRA
cycle: 20
Yeovilton, United Kingdom (EGDY) 51-00N 002-38W 0M
Nov 14, 2019 - 10:50 PM EST / 2019.11.15 0350 UTC
Wind: from the N (360 degrees) at 12 MPH (10 KT):0
Visibility: greater than 7 mile(s):0
Sky conditions: partly cloudy
Temperature: 39 F (4 C)
Dew Point: 37 F (3 C)
Relative Humidity: 93%
Pressure (altimeter): 29.68 in. Hg (1005 hPa)
ob: EGDY 150350Z 36010KT 9999 FEW020 SCT040 04/03 Q1005 BLU
cycle: 4
Luton Airport , United Kingdom (EGGW) 51-52N 000-22W
Nov 14, 2019 - 10:50 PM EST / 2019.11.15 0350 UTC
Wind: from the N (350 degrees) at 9 MPH (8 KT):0
Visibility: less than 1 mile:0
Sky conditions: overcast
Weather: mist
Temperature: 37 F (3 C)
Dew Point: 37 F (3 C)
Relative Humidity: 100%
Pressure (altimeter): 29.65 in. Hg (1004 hPa)
ob: EGGW 150350Z AUTO 35008KT 1600 BR OVC001 03/03 Q1004
cycle: 4
Bournemouth Airport, United Kingdom (EGHH) 50-47N 001-50W 0M
Nov 14, 2019 - 04:50 PM EST / 2019.11.14 2150 UTC
Wind: from the N (350 degrees) at 9 MPH (8 KT):0
Visibility: 3 mile(s):0
Temperature: 37 F (3 C)
Dew Point: 35 F (2 C)
Relative Humidity: 93%
Pressure (altimeter): 29.59 in. Hg (1002 hPa)
ob: EGHH 142150Z 35008KT 6000 NSC 03/02 Q1002
cycle: 22
Guernsey Airport, United Kingdom (EGJB) 49-26N 002-36W 0M
Nov 14, 2019 - 10:50 PM EST / 2019.11.15 0350 UTC
Wind: from the S (180 degrees) at 3 MPH (3 KT):0
Visibility: greater than 7 mile(s):0
Sky conditions: mostly cloudy
Weather: showers in the vicinity; Cumulonimbus clouds observed
Temperature: 42 F (6 C)
Dew Point: 39 F (4 C)
Relative Humidity: 86%
Pressure (altimeter): 29.56 in. Hg (1001 hPa)
ob: EGJB 150350Z 18003KT 9999 VCSH FEW018CB BKN022 06/04 Q1001
cycle: 4
Jersey Airport, United Kingdom (EGJJ) 49-13N 002-12W 0M
Nov 14, 2019 - 10:50 PM EST / 2019.11.15 0350 UTC
Wind: from the E (090 degrees) at 6 MPH (5 KT):0
Visibility: greater than 7 mile(s):0
Temperature: 39 F (4 C)
Dew Point: 37 F (3 C)
Relative Humidity: 93%
Pressure (altimeter): 29.56 in. Hg (1001 hPa)
ob: EGJJ 150350Z AUTO 09005KT 9999 NCD 04/03 Q1001
cycle: 4
London / Gatwick Airport, United Kingdom (EGKK) 51-09N 000-11W 0M
Nov 14, 2019 - 10:50 PM EST / 2019.11.15 0350 UTC
Wind: from the W (270 degrees) at 3 MPH (3 KT):0
Visibility: 3 mile(s):0
Sky conditions: mostly clear
Temperature: 37 F (3 C)
Dew Point: 37 F (3 C)
Relative Humidity: 100%
Pressure (altimeter): 29.62 in. Hg (1003 hPa)
ob: EGKK 150350Z 27003KT 6000 FEW006 03/03 Q1003
cycle: 4
London / Heathrow Airport, United Kingdom (EGLL) 51-29N 000-27W 0M
Nov 14, 2019 - 10:50 PM EST / 2019.11.15 0350 UTC
Wind: from the N (360 degrees) at 6 MPH (5 KT) (direction variable):0
Visibility: 3 mile(s):0
Temperature: 39 F (4 C)
Dew Point: 39 F (4 C)
Relative Humidity: 100%
Pressure (altimeter): 29.65 in. Hg (1004 hPa)
ob: EGLL 150350Z AUTO 36005KT 320V030 6000 NCD 04/04 Q1004 TEMPO BKN006
cycle: 4
Southend-On-Sea , United Kingdom (EGMC) 51-34N 000-42E
Nov 14, 2019 - 10:50 PM EST / 2019.11.15 0350 UTC
Wind: from the NNW (340 degrees) at 6 MPH (5 KT):0
Visibility: greater than 7 mile(s):0
Temperature: 41 F (5 C)
Dew Point: 39 F (4 C)
Relative Humidity: 93%
Pressure (altimeter): 29.62 in. Hg (1003 hPa)
ob: EGMC 150350Z 34005KT CAVOK 05/04 Q1003
cycle: 4
Lydd Airport , United Kingdom (EGMD) 50-57N 000-56E
Nov 14, 2019 - 10:50 PM EST / 2019.11.15 0350 UTC
Wind: from the N (350 degrees) at 10 MPH (9 KT):0
Visibility: greater than 7 mile(s):0
Sky conditions: partly cloudy
Temperature: 39 F (4 C)
Dew Point: 39 F (4 C)
Relative Humidity: 100%
Pressure (altimeter): 29.59 in. Hg (1002 hPa)
ob: EGMD 150350Z AUTO 35009KT 9999 FEW039/// SCT047/// 04/04 Q1002
cycle: 4
Glasgow Airport, United Kingdom (EGPF) 55-52N 004-26W 0M
Nov 14, 2019 - 10:50 PM EST / 2019.11.15 0350 UTC
Wind: Variable at 3 MPH (3 KT):0
Visibility: greater than 7 mile(s):0
Weather: Cumulonimbus clouds observed
Temperature: 33 F (1 C)
Dew Point: 28 F (-2 C)
Relative Humidity: 80%
Pressure (altimeter): 29.97 in. Hg (1015 hPa)
ob: EGPF 150350Z AUTO VRB03KT 9999 //////CB 01/M02 Q1015
cycle: 4
Stansted Airport, United Kingdom (EGSS) 51-53N 000-14E 0M
Nov 14, 2019 - 10:50 PM EST / 2019.11.15 0350 UTC
Wind: from the NNW (340 degrees) at 8 MPH (7 KT):0
Visibility: less than 1 mile:0
Sky conditions: mostly cloudy
Weather: patches of fog
Temperature: 37 F (3 C)
Dew Point: 37 F (3 C)
Relative Humidity: 100%
Pressure (altimeter): 29.62 in. Hg (1003 hPa)
ob: EGSS 150350Z 34007KT 1000 R04/P1500 BCFG SCT001 BKN002 03/03 Q1003
cycle: 4
Brize Norton, United Kingdom (EGVN) 51-45N 001-35W 0M
Nov 14, 2019 - 10:50 PM EST / 2019.11.15 0350 UTC
Wind: from the NNE (020 degrees) at 8 MPH (7 KT):0
Visibility: 4 mile(s):0
Sky conditions: mostly cloudy
Weather: haze
Temperature: 41 F (5 C)
Dew Point: 39 F (4 C)
Relative Humidity: 93%
Pressure (altimeter): 29.68 in. Hg (1005 hPa)
ob: EGVN 150350Z 02007KT 7000 HZ BKN006 BKN030 05/04 Q1005 TEMPO 8000 FEW006 BKN010
cycle: 4



The data is logged at two minute intervals, but there is data recorded every minute. On the graph, the Blue line represents the average windspeed, the Red line is the maximum gust for that interval, and the Green line is what the wind has dropped off to in the same interval. Fuschia is the Barometer, and the dew point and Blue is humidity.

Use the RELOAD facility on your browser to retrieve the latest data.

Click here for a daily update of the averages/extremes to date for the month

Check *Live* Weather

Created by "Weather Display" software version 10.37S at this start time/date 19:48:12 10/11/2019